sensor_id;sensor_type;location;lat;lon;timestamp;temperature;humidity
57833;DHT22;43667;53.036;6.740;2023-02-12T00:00:00;6.60;99.90
57833;DHT22;43667;53.036;6.740;2023-02-12T00:02:26;6.60;99.90
57833;DHT22;43667;53.036;6.740;2023-02-12T00:04:51;6.50;99.90
57833;DHT22;43667;53.036;6.740;2023-02-12T00:07:17;6.50;99.90
57833;DHT22;43667;53.036;6.740;2023-02-12T00:09:43;6.50;99.90
57833;DHT22;43667;53.036;6.740;2023-02-12T00:12:09;6.50;99.90
57833;DHT22;43667;53.036;6.740;2023-02-12T00:14:36;6.60;99.90
57833;DHT22;43667;53.036;6.740;2023-02-12T00:17:02;6.50;99.90
57833;DHT22;43667;53.036;6.740;2023-02-12T00:19:28;6.50;99.90
57833;DHT22;43667;53.036;6.740;2023-02-12T00:21:54;6.50;99.90
57833;DHT22;43667;53.036;6.740;2023-02-12T00:24:20;6.50;99.90
57833;DHT22;43667;53.036;6.740;2023-02-12T00:26:45;6.50;99.90
57833;DHT22;43667;53.036;6.740;2023-02-12T00:29:12;6.40;99.90
57833;DHT22;43667;53.036;6.740;2023-02-12T00:31:38;6.40;99.90
57833;DHT22;43667;53.036;6.740;2023-02-12T00:34:04;6.40;99.90
57833;DHT22;43667;53.036;6.740;2023-02-12T00:36:30;6.40;99.90
57833;DHT22;43667;53.036;6.740;2023-02-12T00:38:57;6.40;99.90
57833;DHT22;43667;53.036;6.740;2023-02-12T00:41:25;6.30;99.90
57833;DHT22;43667;53.036;6.740;2023-02-12T00:43:50;6.40;99.90
57833;DHT22;43667;53.036;6.740;2023-02-12T00:46:16;6.40;99.90
57833;DHT22;43667;53.036;6.740;2023-02-12T00:48:42;6.30;99.90
57833;DHT22;43667;53.036;6.740;2023-02-12T00:51:08;6.30;99.90
57833;DHT22;43667;53.036;6.740;2023-02-12T00:53:34;6.30;99.90
57833;DHT22;43667;53.036;6.740;2023-02-12T00:56:00;6.30;99.90
57833;DHT22;43667;53.036;6.740;2023-02-12T00:58:27;6.30;99.90
57833;DHT22;43667;53.036;6.740;2023-02-12T01:00:53;6.30;99.90
57833;DHT22;43667;53.036;6.740;2023-02-12T01:03:19;6.30;99.90
57833;DHT22;43667;53.036;6.740;2023-02-12T01:05:45;6.30;99.90
57833;DHT22;43667;53.036;6.740;2023-02-12T01:08:15;6.20;99.90
57833;DHT22;43667;53.036;6.740;2023-02-12T01:10:42;6.20;99.90
57833;DHT22;43667;53.036;6.740;2023-02-12T01:13:13;6.20;99.90
57833;DHT22;43667;53.036;6.740;2023-02-12T01:15:40;6.20;99.90
57833;DHT22;43667;53.036;6.740;2023-02-12T01:18:06;6.20;99.90
57833;DHT22;43667;53.036;6.740;2023-02-12T01:20:32;6.20;99.90
57833;DHT22;43667;53.036;6.740;2023-02-12T01:22:57;6.20;99.90
57833;DHT22;43667;53.036;6.740;2023-02-12T01:25:23;6.10;99.90
57833;DHT22;43667;53.036;6.740;2023-02-12T01:27:52;6.10;99.90
57833;DHT22;43667;53.036;6.740;2023-02-12T01:30:18;6.10;99.90
57833;DHT22;43667;53.036;6.740;2023-02-12T01:32:46;6.10;99.90
57833;DHT22;43667;53.036;6.740;2023-02-12T01:35:12;6.10;99.90
57833;DHT22;43667;53.036;6.740;2023-02-12T01:37:37;6.10;99.90
57833;DHT22;43667;53.036;6.740;2023-02-12T01:40:04;6.10;99.90
57833;DHT22;43667;53.036;6.740;2023-02-12T01:42:30;6.10;99.90
57833;DHT22;43667;53.036;6.740;2023-02-12T01:47:41;6.10;99.90
57833;DHT22;43667;53.036;6.740;2023-02-12T01:50:10;6.10;99.90
57833;DHT22;43667;53.036;6.740;2023-02-12T01:52:38;6.10;99.90
57833;DHT22;43667;53.036;6.740;2023-02-12T01:55:06;6.10;99.90
57833;DHT22;43667;53.036;6.740;2023-02-12T01:57:36;6.10;99.90
57833;DHT22;43667;53.036;6.740;2023-02-12T02:00:06;6.10;99.90
57833;DHT22;43667;53.036;6.740;2023-02-12T02:02:33;6.10;99.90
57833;DHT22;43667;53.036;6.740;2023-02-12T02:05:01;6.10;99.90
57833;DHT22;43667;53.036;6.740;2023-02-12T02:07:28;6.10;99.90
57833;DHT22;43667;53.036;6.740;2023-02-12T02:09:54;6.10;99.90
57833;DHT22;43667;53.036;6.740;2023-02-12T02:12:20;6.10;99.90
57833;DHT22;43667;53.036;6.740;2023-02-12T02:15:05;6.10;99.90
57833;DHT22;43667;53.036;6.740;2023-02-12T02:20:48;6.10;99.90
57833;DHT22;43667;53.036;6.740;2023-02-12T02:23:55;6.00;99.90
57833;DHT22;43667;53.036;6.740;2023-02-12T02:31:51;6.00;99.90
57833;DHT22;43667;53.036;6.740;2023-02-12T02:34:38;6.00;99.90
57833;DHT22;43667;53.036;6.740;2023-02-12T02:43:01;6.00;99.90
57833;DHT22;43667;53.036;6.740;2023-02-12T02:45:53;6.00;99.90
57833;DHT22;43667;53.036;6.740;2023-02-12T02:48:26;6.00;99.90
57833;DHT22;43667;53.036;6.740;2023-02-12T02:51:03;6.00;99.90
57833;DHT22;43667;53.036;6.740;2023-02-12T02:53:36;6.00;99.90
57833;DHT22;43667;53.036;6.740;2023-02-12T02:56:06;6.00;99.90
57833;DHT22;43667;53.036;6.740;2023-02-12T02:58:42;6.00;99.90
57833;DHT22;43667;53.036;6.740;2023-02-12T03:01:19;6.00;99.90
57833;DHT22;43667;53.036;6.740;2023-02-12T03:04:02;6.00;99.90
57833;DHT22;43667;53.036;6.740;2023-02-12T03:06:42;5.90;99.90
57833;DHT22;43667;53.036;6.740;2023-02-12T03:09:19;6.00;99.90
57833;DHT22;43667;53.036;6.740;2023-02-12T03:11:46;5.90;99.90
57833;DHT22;43667;53.036;6.740;2023-02-12T03:14:22;5.90;99.90
57833;DHT22;43667;53.036;6.740;2023-02-12T03:17:08;5.90;99.90
57833;DHT22;43667;53.036;6.740;2023-02-12T03:19:39;5.90;99.90
57833;DHT22;43667;53.036;6.740;2023-02-12T03:22:19;5.90;99.90
57833;DHT22;43667;53.036;6.740;2023-02-12T03:24:55;5.90;99.90
57833;DHT22;43667;53.036;6.740;2023-02-12T03:27:33;5.90;99.90
57833;DHT22;43667;53.036;6.740;2023-02-12T03:30:02;5.90;99.90
57833;DHT22;43667;53.036;6.740;2023-02-12T03:35:29;5.90;99.90
57833;DHT22;43667;53.036;6.740;2023-02-12T03:38:34;5.90;99.90
57833;DHT22;43667;53.036;6.740;2023-02-12T03:41:09;5.90;99.90
57833;DHT22;43667;53.036;6.740;2023-02-12T03:46:09;5.90;99.90
57833;DHT22;43667;53.036;6.740;2023-02-12T03:48:58;5.90;99.90
57833;DHT22;43667;53.036;6.740;2023-02-12T03:51:33;5.90;99.90
57833;DHT22;43667;53.036;6.740;2023-02-12T03:54:00;5.90;99.90
57833;DHT22;43667;53.036;6.740;2023-02-12T03:56:47;5.90;99.90
57833;DHT22;43667;53.036;6.740;2023-02-12T03:59:23;5.90;99.90
57833;DHT22;43667;53.036;6.740;2023-02-12T04:01:51;5.90;99.90
57833;DHT22;43667;53.036;6.740;2023-02-12T04:04:17;5.90;99.90
57833;DHT22;43667;53.036;6.740;2023-02-12T04:06:45;5.90;99.90
57833;DHT22;43667;53.036;6.740;2023-02-12T04:09:12;5.90;99.90
57833;DHT22;43667;53.036;6.740;2023-02-12T04:12:13;5.90;99.90
57833;DHT22;43667;53.036;6.740;2023-02-12T04:14:57;6.00;99.90
57833;DHT22;43667;53.036;6.740;2023-02-12T04:17:35;5.90;99.90
57833;DHT22;43667;53.036;6.740;2023-02-12T04:20:26;5.90;99.90
57833;DHT22;43667;53.036;6.740;2023-02-12T04:29:04;5.90;99.90
57833;DHT22;43667;53.036;6.740;2023-02-12T04:31:40;5.90;99.90
57833;DHT22;43667;53.036;6.740;2023-02-12T04:34:16;5.90;99.90
57833;DHT22;43667;53.036;6.740;2023-02-12T04:36:58;5.90;99.90
57833;DHT22;43667;53.036;6.740;2023-02-12T04:39:28;6.00;99.90
57833;DHT22;43667;53.036;6.740;2023-02-12T04:42:00;5.90;99.90
57833;DHT22;43667;53.036;6.740;2023-02-12T04:44:28;5.90;99.90
57833;DHT22;43667;53.036;6.740;2023-02-12T04:46:55;5.90;99.90
57833;DHT22;43667;53.036;6.740;2023-02-12T04:49:21;5.90;99.90
57833;DHT22;43667;53.036;6.740;2023-02-12T04:51:48;5.90;99.90
57833;DHT22;43667;53.036;6.740;2023-02-12T04:54:15;5.90;99.90
57833;DHT22;43667;53.036;6.740;2023-02-12T04:56:42;5.90;99.90
57833;DHT22;43667;53.036;6.740;2023-02-12T04:59:08;5.90;99.90
57833;DHT22;43667;53.036;6.740;2023-02-12T05:01:35;5.80;99.90
57833;DHT22;43667;53.036;6.740;2023-02-12T05:04:02;5.80;99.90
57833;DHT22;43667;53.036;6.740;2023-02-12T05:06:27;5.80;99.90
57833;DHT22;43667;53.036;6.740;2023-02-12T05:08:55;5.80;99.90
57833;DHT22;43667;53.036;6.740;2023-02-12T05:11:21;5.70;99.90
57833;DHT22;43667;53.036;6.740;2023-02-12T05:13:48;5.70;99.90
57833;DHT22;43667;53.036;6.740;2023-02-12T05:16:14;5.70;99.90
57833;DHT22;43667;53.036;6.740;2023-02-12T05:18:40;5.70;99.90
57833;DHT22;43667;53.036;6.740;2023-02-12T05:21:06;5.70;99.90
57833;DHT22;43667;53.036;6.740;2023-02-12T05:23:34;5.70;99.90
57833;DHT22;43667;53.036;6.740;2023-02-12T05:26:03;5.70;99.90
57833;DHT22;43667;53.036;6.740;2023-02-12T05:28:29;5.70;99.90
57833;DHT22;43667;53.036;6.740;2023-02-12T05:30:59;5.70;99.90
57833;DHT22;43667;53.036;6.740;2023-02-12T05:33:24;5.70;99.90
57833;DHT22;43667;53.036;6.740;2023-02-12T05:35:50;5.70;99.90
57833;DHT22;43667;53.036;6.740;2023-02-12T05:38:15;5.70;99.90
57833;DHT22;43667;53.036;6.740;2023-02-12T05:40:41;5.70;99.90
57833;DHT22;43667;53.036;6.740;2023-02-12T05:43:07;5.60;99.90
57833;DHT22;43667;53.036;6.740;2023-02-12T05:45:33;5.70;99.90
57833;DHT22;43667;53.036;6.740;2023-02-12T05:47:58;5.60;99.90
57833;DHT22;43667;53.036;6.740;2023-02-12T05:50:24;5.60;99.90
57833;DHT22;43667;53.036;6.740;2023-02-12T05:52:50;5.70;99.90
57833;DHT22;43667;53.036;6.740;2023-02-12T05:55:15;5.60;99.90
57833;DHT22;43667;53.036;6.740;2023-02-12T05:57:41;5.70;99.90
57833;DHT22;43667;53.036;6.740;2023-02-12T06:00:08;5.70;99.90
57833;DHT22;43667;53.036;6.740;2023-02-12T06:02:34;5.70;99.90
57833;DHT22;43667;53.036;6.740;2023-02-12T06:05:00;5.70;99.90
57833;DHT22;43667;53.036;6.740;2023-02-12T06:07:25;5.70;99.90
57833;DHT22;43667;53.036;6.740;2023-02-12T06:09:51;5.70;99.90
57833;DHT22;43667;53.036;6.740;2023-02-12T06:12:17;5.70;99.90
57833;DHT22;43667;53.036;6.740;2023-02-12T06:14:42;5.70;99.90
57833;DHT22;43667;53.036;6.740;2023-02-12T06:17:08;5.70;99.90
57833;DHT22;43667;53.036;6.740;2023-02-12T06:19:34;5.70;99.90
57833;DHT22;43667;53.036;6.740;2023-02-12T06:21:59;5.60;99.90
57833;DHT22;43667;53.036;6.740;2023-02-12T06:24:25;5.70;99.90
57833;DHT22;43667;53.036;6.740;2023-02-12T06:26:51;5.60;99.90
57833;DHT22;43667;53.036;6.740;2023-02-12T06:29:18;5.60;99.90
57833;DHT22;43667;53.036;6.740;2023-02-12T06:31:43;5.70;99.90
57833;DHT22;43667;53.036;6.740;2023-02-12T06:34:11;5.60;99.90
57833;DHT22;43667;53.036;6.740;2023-02-12T06:36:39;5.60;99.90
57833;DHT22;43667;53.036;6.740;2023-02-12T06:39:05;5.60;99.90
57833;DHT22;43667;53.036;6.740;2023-02-12T06:41:31;5.60;99.90
57833;DHT22;43667;53.036;6.740;2023-02-12T06:43:57;5.60;99.90
57833;DHT22;43667;53.036;6.740;2023-02-12T06:46:22;5.60;99.90
57833;DHT22;43667;53.036;6.740;2023-02-12T06:48:52;5.60;99.90
57833;DHT22;43667;53.036;6.740;2023-02-12T06:51:18;5.60;99.90
57833;DHT22;43667;53.036;6.740;2023-02-12T06:53:46;5.60;99.90
57833;DHT22;43667;53.036;6.740;2023-02-12T06:56:12;5.60;99.90
57833;DHT22;43667;53.036;6.740;2023-02-12T06:58:41;5.60;99.90
57833;DHT22;43667;53.036;6.740;2023-02-12T07:01:12;5.60;99.90
57833;DHT22;43667;53.036;6.740;2023-02-12T07:03:46;5.60;99.90
57833;DHT22;43667;53.036;6.740;2023-02-12T07:06:12;5.60;99.90
57833;DHT22;43667;53.036;6.740;2023-02-12T07:08:38;5.60;99.90
57833;DHT22;43667;53.036;6.740;2023-02-12T07:11:04;5.70;99.90
57833;DHT22;43667;53.036;6.740;2023-02-12T07:13:29;5.70;99.90
57833;DHT22;43667;53.036;6.740;2023-02-12T07:15:55;5.70;99.90
57833;DHT22;43667;53.036;6.740;2023-02-12T07:18:20;5.70;99.90
57833;DHT22;43667;53.036;6.740;2023-02-12T07:20:46;5.70;99.90
57833;DHT22;43667;53.036;6.740;2023-02-12T07:23:12;5.70;99.90
57833;DHT22;43667;53.036;6.740;2023-02-12T07:25:38;5.70;99.90
57833;DHT22;43667;53.036;6.740;2023-02-12T07:28:03;5.70;99.90
57833;DHT22;43667;53.036;6.740;2023-02-12T07:30:29;5.70;99.90
57833;DHT22;43667;53.036;6.740;2023-02-12T07:32:55;5.80;99.90
57833;DHT22;43667;53.036;6.740;2023-02-12T07:35:20;5.80;99.90
57833;DHT22;43667;53.036;6.740;2023-02-12T07:37:46;5.80;99.90
57833;DHT22;43667;53.036;6.740;2023-02-12T07:40:12;5.80;99.90
57833;DHT22;43667;53.036;6.740;2023-02-12T07:42:37;5.80;99.90
57833;DHT22;43667;53.036;6.740;2023-02-12T07:45:03;5.80;99.90
57833;DHT22;43667;53.036;6.740;2023-02-12T07:47:29;5.80;99.90
57833;DHT22;43667;53.036;6.740;2023-02-12T07:49:55;5.90;99.90
57833;DHT22;43667;53.036;6.740;2023-02-12T07:52:21;5.90;99.90
57833;DHT22;43667;53.036;6.740;2023-02-12T07:54:46;5.90;99.90
57833;DHT22;43667;53.036;6.740;2023-02-12T07:57:12;5.90;99.90
57833;DHT22;43667;53.036;6.740;2023-02-12T07:59:37;6.00;99.90
57833;DHT22;43667;53.036;6.740;2023-02-12T08:02:03;6.00;99.90
57833;DHT22;43667;53.036;6.740;2023-02-12T08:04:29;6.00;99.90
57833;DHT22;43667;53.036;6.740;2023-02-12T08:06:55;6.00;99.90
57833;DHT22;43667;53.036;6.740;2023-02-12T08:09:24;6.10;99.90
57833;DHT22;43667;53.036;6.740;2023-02-12T08:11:50;6.10;99.90
57833;DHT22;43667;53.036;6.740;2023-02-12T08:14:18;6.10;99.90
57833;DHT22;43667;53.036;6.740;2023-02-12T08:16:44;6.10;99.90
57833;DHT22;43667;53.036;6.740;2023-02-12T08:19:10;6.20;99.90
57833;DHT22;43667;53.036;6.740;2023-02-12T08:21:36;6.20;99.90
57833;DHT22;43667;53.036;6.740;2023-02-12T08:24:02;6.20;99.90
57833;DHT22;43667;53.036;6.740;2023-02-12T08:26:34;6.20;99.90
57833;DHT22;43667;53.036;6.740;2023-02-12T08:29:07;6.20;99.90
57833;DHT22;43667;53.036;6.740;2023-02-12T08:31:44;6.30;99.90
57833;DHT22;43667;53.036;6.740;2023-02-12T08:34:25;6.30;99.90
57833;DHT22;43667;53.036;6.740;2023-02-12T08:36:52;6.30;99.90
57833;DHT22;43667;53.036;6.740;2023-02-12T08:39:19;6.30;99.90
57833;DHT22;43667;53.036;6.740;2023-02-12T08:41:45;6.40;99.90
57833;DHT22;43667;53.036;6.740;2023-02-12T08:44:12;6.50;99.90
57833;DHT22;43667;53.036;6.740;2023-02-12T08:46:41;6.50;99.90
57833;DHT22;43667;53.036;6.740;2023-02-12T08:49:13;6.50;99.90
57833;DHT22;43667;53.036;6.740;2023-02-12T08:51:41;6.50;99.90
57833;DHT22;43667;53.036;6.740;2023-02-12T08:54:10;6.60;99.90
57833;DHT22;43667;53.036;6.740;2023-02-12T08:56:36;6.60;99.90
57833;DHT22;43667;53.036;6.740;2023-02-12T08:59:03;6.60;99.90
57833;DHT22;43667;53.036;6.740;2023-02-12T09:01:31;6.70;99.90
57833;DHT22;43667;53.036;6.740;2023-02-12T09:03:58;6.70;99.90
57833;DHT22;43667;53.036;6.740;2023-02-12T09:06:24;6.70;99.90
57833;DHT22;43667;53.036;6.740;2023-02-12T09:08:52;6.70;99.90
57833;DHT22;43667;53.036;6.740;2023-02-12T09:11:21;6.70;99.90
57833;DHT22;43667;53.036;6.740;2023-02-12T09:13:55;6.80;99.90
57833;DHT22;43667;53.036;6.740;2023-02-12T09:16:21;6.80;99.90
57833;DHT22;43667;53.036;6.740;2023-02-12T09:18:47;6.80;99.90
57833;DHT22;43667;53.036;6.740;2023-02-12T09:21:14;6.90;99.90
57833;DHT22;43667;53.036;6.740;2023-02-12T09:23:41;6.90;99.90
57833;DHT22;43667;53.036;6.740;2023-02-12T09:26:09;7.00;99.90
57833;DHT22;43667;53.036;6.740;2023-02-12T09:28:36;7.10;99.90
57833;DHT22;43667;53.036;6.740;2023-02-12T09:31:10;7.10;99.90
57833;DHT22;43667;53.036;6.740;2023-02-12T09:33:36;7.20;99.90
57833;DHT22;43667;53.036;6.740;2023-02-12T09:36:08;7.20;99.90
57833;DHT22;43667;53.036;6.740;2023-02-12T09:38:35;7.30;99.90
57833;DHT22;43667;53.036;6.740;2023-02-12T09:41:21;7.40;99.90
57833;DHT22;43667;53.036;6.740;2023-02-12T09:46:38;7.40;99.90
57833;DHT22;43667;53.036;6.740;2023-02-12T09:49:10;7.40;99.90
57833;DHT22;43667;53.036;6.740;2023-02-12T09:51:38;7.50;99.90
57833;DHT22;43667;53.036;6.740;2023-02-12T09:54:09;7.50;99.90
57833;DHT22;43667;53.036;6.740;2023-02-12T09:56:37;7.60;99.90
57833;DHT22;43667;53.036;6.740;2023-02-12T09:59:07;7.60;99.90
57833;DHT22;43667;53.036;6.740;2023-02-12T10:01:33;7.70;99.90
57833;DHT22;43667;53.036;6.740;2023-02-12T10:04:00;7.80;99.90
57833;DHT22;43667;53.036;6.740;2023-02-12T10:06:29;7.80;99.90
57833;DHT22;43667;53.036;6.740;2023-02-12T10:09:02;7.90;99.90
57833;DHT22;43667;53.036;6.740;2023-02-12T10:11:42;7.90;99.90
57833;DHT22;43667;53.036;6.740;2023-02-12T10:14:28;7.90;99.90
57833;DHT22;43667;53.036;6.740;2023-02-12T10:20:06;8.00;99.90
57833;DHT22;43667;53.036;6.740;2023-02-12T10:22:58;8.00;99.90
57833;DHT22;43667;53.036;6.740;2023-02-12T10:25:50;8.00;99.90
57833;DHT22;43667;53.036;6.740;2023-02-12T10:28:20;8.10;99.90
57833;DHT22;43667;53.036;6.740;2023-02-12T10:31:03;8.10;99.90
57833;DHT22;43667;53.036;6.740;2023-02-12T10:33:43;8.20;99.90
57833;DHT22;43667;53.036;6.740;2023-02-12T10:38:48;8.30;99.90
57833;DHT22;43667;53.036;6.740;2023-02-12T10:41:16;8.40;99.90
57833;DHT22;43667;53.036;6.740;2023-02-12T10:43:41;8.40;99.90
57833;DHT22;43667;53.036;6.740;2023-02-12T10:46:15;8.50;99.90
57833;DHT22;43667;53.036;6.740;2023-02-12T10:48:42;8.50;99.90
57833;DHT22;43667;53.036;6.740;2023-02-12T10:53:42;8.60;99.90
57833;DHT22;43667;53.036;6.740;2023-02-12T11:01:26;8.90;99.90
57833;DHT22;43667;53.036;6.740;2023-02-12T11:03:58;8.90;99.90
57833;DHT22;43667;53.036;6.740;2023-02-12T11:06:28;9.00;99.90
57833;DHT22;43667;53.036;6.740;2023-02-12T11:08:55;9.00;99.90
57833;DHT22;43667;53.036;6.740;2023-02-12T11:11:27;9.10;99.90
57833;DHT22;43667;53.036;6.740;2023-02-12T11:14:13;9.10;99.90
57833;DHT22;43667;53.036;6.740;2023-02-12T11:16:56;9.20;99.90
57833;DHT22;43667;53.036;6.740;2023-02-12T11:19:25;9.40;99.90
57833;DHT22;43667;53.036;6.740;2023-02-12T11:22:09;9.60;99.90
57833;DHT22;43667;53.036;6.740;2023-02-12T11:24:36;9.70;99.90
57833;DHT22;43667;53.036;6.740;2023-02-12T11:27:28;9.80;99.90
57833;DHT22;43667;53.036;6.740;2023-02-12T11:30:23;9.90;99.90
57833;DHT22;43667;53.036;6.740;2023-02-12T11:32:49;10.10;99.90
57833;DHT22;43667;53.036;6.740;2023-02-12T11:35:23;10.10;99.90
57833;DHT22;43667;53.036;6.740;2023-02-12T11:37:55;10.20;99.90
57833;DHT22;43667;53.036;6.740;2023-02-12T11:40:30;10.20;99.90
57833;DHT22;43667;53.036;6.740;2023-02-12T11:43:01;10.20;99.90
57833;DHT22;43667;53.036;6.740;2023-02-12T11:45:45;10.30;99.90
57833;DHT22;43667;53.036;6.740;2023-02-12T11:48:17;10.30;99.90
57833;DHT22;43667;53.036;6.740;2023-02-12T11:50:49;10.40;99.90
57833;DHT22;43667;53.036;6.740;2023-02-12T11:53:46;10.40;99.90
57833;DHT22;43667;53.036;6.740;2023-02-12T11:56:13;10.30;99.90
57833;DHT22;43667;53.036;6.740;2023-02-12T11:58:40;10.40;99.90
57833;DHT22;43667;53.036;6.740;2023-02-12T12:01:44;10.50;99.90
57833;DHT22;43667;53.036;6.740;2023-02-12T12:04:15;10.50;99.90
57833;DHT22;43667;53.036;6.740;2023-02-12T12:07:14;10.40;99.90
57833;DHT22;43667;53.036;6.740;2023-02-12T12:09:59;10.40;99.90
57833;DHT22;43667;53.036;6.740;2023-02-12T12:12:36;10.50;99.90
57833;DHT22;43667;53.036;6.740;2023-02-12T12:15:22;10.50;99.90
57833;DHT22;43667;53.036;6.740;2023-02-12T12:18:46;10.50;99.90
57833;DHT22;43667;53.036;6.740;2023-02-12T12:21:44;10.50;99.90
57833;DHT22;43667;53.036;6.740;2023-02-12T12:24:23;10.60;99.90
57833;DHT22;43667;53.036;6.740;2023-02-12T12:27:09;10.70;99.90
57833;DHT22;43667;53.036;6.740;2023-02-12T12:29:54;10.70;99.90
57833;DHT22;43667;53.036;6.740;2023-02-12T12:32:25;10.80;99.90
57833;DHT22;43667;53.036;6.740;2023-02-12T12:34:53;10.80;99.90
57833;DHT22;43667;53.036;6.740;2023-02-12T12:43:13;10.70;99.90
57833;DHT22;43667;53.036;6.740;2023-02-12T12:56:37;10.40;99.90
57833;DHT22;43667;53.036;6.740;2023-02-12T13:05:32;10.30;99.90
57833;DHT22;43667;53.036;6.740;2023-02-12T13:08:27;10.30;99.90
57833;DHT22;43667;53.036;6.740;2023-02-12T13:11:01;10.20;99.90
57833;DHT22;43667;53.036;6.740;2023-02-12T13:13:37;10.20;99.90
57833;DHT22;43667;53.036;6.740;2023-02-12T13:16:18;10.20;99.90
57833;DHT22;43667;53.036;6.740;2023-02-12T13:23:56;10.30;99.90
57833;DHT22;43667;53.036;6.740;2023-02-12T13:26:53;10.40;99.90
57833;DHT22;43667;53.036;6.740;2023-02-12T13:29:31;10.40;99.90
57833;DHT22;43667;53.036;6.740;2023-02-12T13:32:04;10.50;99.90
57833;DHT22;43667;53.036;6.740;2023-02-12T13:34:31;10.50;99.90
57833;DHT22;43667;53.036;6.740;2023-02-12T13:37:03;10.60;99.90
57833;DHT22;43667;53.036;6.740;2023-02-12T13:39:36;10.60;99.90
57833;DHT22;43667;53.036;6.740;2023-02-12T13:44:55;10.60;99.90
57833;DHT22;43667;53.036;6.740;2023-02-12T13:50:12;10.50;99.90
57833;DHT22;43667;53.036;6.740;2023-02-12T13:55:45;10.40;99.90
57833;DHT22;43667;53.036;6.740;2023-02-12T14:01:01;10.30;99.90
57833;DHT22;43667;53.036;6.740;2023-02-12T14:03:28;10.20;99.90
57833;DHT22;43667;53.036;6.740;2023-02-12T14:06:18;10.10;99.90
57833;DHT22;43667;53.036;6.740;2023-02-12T14:08:53;10.10;99.90
57833;DHT22;43667;53.036;6.740;2023-02-12T14:11:31;10.10;99.90
57833;DHT22;43667;53.036;6.740;2023-02-12T14:14:00;10.10;99.90
57833;DHT22;43667;53.036;6.740;2023-02-12T14:22:00;10.10;99.90
57833;DHT22;43667;53.036;6.740;2023-02-12T14:27:03;10.10;99.90
57833;DHT22;43667;53.036;6.740;2023-02-12T14:29:30;10.10;99.90
57833;DHT22;43667;53.036;6.740;2023-02-12T14:31:55;10.00;99.90
57833;DHT22;43667;53.036;6.740;2023-02-12T14:36:47;10.00;99.90
57833;DHT22;43667;53.036;6.740;2023-02-12T14:39:33;10.00;99.90
57833;DHT22;43667;53.036;6.740;2023-02-12T14:44:37;9.90;99.90
57833;DHT22;43667;53.036;6.740;2023-02-12T14:47:08;10.00;99.90
57833;DHT22;43667;53.036;6.740;2023-02-12T14:49:50;10.00;99.90
57833;DHT22;43667;53.036;6.740;2023-02-12T14:52:26;9.90;99.90
57833;DHT22;43667;53.036;6.740;2023-02-12T14:59:56;9.80;99.90
57833;DHT22;43667;53.036;6.740;2023-02-12T15:02:29;9.70;99.90
57833;DHT22;43667;53.036;6.740;2023-02-12T15:05:02;9.70;99.90
57833;DHT22;43667;53.036;6.740;2023-02-12T15:07:52;9.70;99.90
57833;DHT22;43667;53.036;6.740;2023-02-12T15:10:40;9.70;99.90
57833;DHT22;43667;53.036;6.740;2023-02-12T15:13:17;9.60;99.90
57833;DHT22;43667;53.036;6.740;2023-02-12T15:18:51;9.60;99.90
57833;DHT22;43667;53.036;6.740;2023-02-12T15:21:27;9.60;99.90
57833;DHT22;43667;53.036;6.740;2023-02-12T15:24:11;9.50;99.90
57833;DHT22;43667;53.036;6.740;2023-02-12T15:26:47;9.50;99.90
57833;DHT22;43667;53.036;6.740;2023-02-12T15:32:06;9.50;99.90
57833;DHT22;43667;53.036;6.740;2023-02-12T15:34:36;9.50;99.90
57833;DHT22;43667;53.036;6.740;2023-02-12T15:37:06;9.50;99.90
57833;DHT22;43667;53.036;6.740;2023-02-12T15:39:40;9.40;99.90
57833;DHT22;43667;53.036;6.740;2023-02-12T15:42:31;9.40;99.90
57833;DHT22;43667;53.036;6.740;2023-02-12T15:45:07;9.40;99.90
57833;DHT22;43667;53.036;6.740;2023-02-12T15:47:45;9.40;99.90
57833;DHT22;43667;53.036;6.740;2023-02-12T15:50:15;9.30;99.90
57833;DHT22;43667;53.036;6.740;2023-02-12T15:52:43;9.30;99.90
57833;DHT22;43667;53.036;6.740;2023-02-12T15:55:15;9.30;99.90
57833;DHT22;43667;53.036;6.740;2023-02-12T15:57:53;9.30;99.90
57833;DHT22;43667;53.036;6.740;2023-02-12T16:02:55;9.20;99.90
57833;DHT22;43667;53.036;6.740;2023-02-12T16:05:21;9.10;99.90
57833;DHT22;43667;53.036;6.740;2023-02-12T16:07:48;9.10;99.90
57833;DHT22;43667;53.036;6.740;2023-02-12T16:10:15;9.10;99.90
57833;DHT22;43667;53.036;6.740;2023-02-12T16:12:42;9.10;99.90
57833;DHT22;43667;53.036;6.740;2023-02-12T16:15:27;9.10;99.90
57833;DHT22;43667;53.036;6.740;2023-02-12T16:17:53;9.10;99.90
57833;DHT22;43667;53.036;6.740;2023-02-12T16:20:20;9.00;99.90
57833;DHT22;43667;53.036;6.740;2023-02-12T16:22:48;9.00;99.90
57833;DHT22;43667;53.036;6.740;2023-02-12T16:25:28;9.00;99.90
57833;DHT22;43667;53.036;6.740;2023-02-12T16:28:03;8.90;99.90
57833;DHT22;43667;53.036;6.740;2023-02-12T16:30:34;9.00;99.90
57833;DHT22;43667;53.036;6.740;2023-02-12T16:36:04;8.90;99.90
57833;DHT22;43667;53.036;6.740;2023-02-12T16:38:42;8.90;99.90
57833;DHT22;43667;53.036;6.740;2023-02-12T16:41:19;8.90;99.90
57833;DHT22;43667;53.036;6.740;2023-02-12T16:43:51;8.90;99.90
57833;DHT22;43667;53.036;6.740;2023-02-12T16:46:53;8.80;99.90
57833;DHT22;43667;53.036;6.740;2023-02-12T16:49:22;8.80;99.90
57833;DHT22;43667;53.036;6.740;2023-02-12T16:51:49;8.80;99.90
57833;DHT22;43667;53.036;6.740;2023-02-12T16:54:32;8.80;99.90
57833;DHT22;43667;53.036;6.740;2023-02-12T16:56:58;8.80;99.90
57833;DHT22;43667;53.036;6.740;2023-02-12T16:59:25;8.70;99.90
57833;DHT22;43667;53.036;6.740;2023-02-12T17:02:03;8.70;99.90
57833;DHT22;43667;53.036;6.740;2023-02-12T17:04:30;8.70;99.90
57833;DHT22;43667;53.036;6.740;2023-02-12T17:06:56;8.70;99.90
57833;DHT22;43667;53.036;6.740;2023-02-12T17:09:22;8.70;99.90
57833;DHT22;43667;53.036;6.740;2023-02-12T17:11:48;8.60;99.90
57833;DHT22;43667;53.036;6.740;2023-02-12T17:14:16;8.60;99.90
57833;DHT22;43667;53.036;6.740;2023-02-12T17:16:42;8.60;99.90
57833;DHT22;43667;53.036;6.740;2023-02-12T17:19:08;8.60;99.90
57833;DHT22;43667;53.036;6.740;2023-02-12T17:21:40;8.60;99.90
57833;DHT22;43667;53.036;6.740;2023-02-12T17:24:15;8.60;99.90
57833;DHT22;43667;53.036;6.740;2023-02-12T17:26:42;8.60;99.90
57833;DHT22;43667;53.036;6.740;2023-02-12T17:29:08;8.60;99.90
57833;DHT22;43667;53.036;6.740;2023-02-12T17:31:34;8.50;99.90
57833;DHT22;43667;53.036;6.740;2023-02-12T17:34:00;8.50;99.90
57833;DHT22;43667;53.036;6.740;2023-02-12T17:36:26;8.50;99.90
57833;DHT22;43667;53.036;6.740;2023-02-12T17:38:52;8.50;99.90
57833;DHT22;43667;53.036;6.740;2023-02-12T17:41:17;8.40;99.90
57833;DHT22;43667;53.036;6.740;2023-02-12T17:43:43;8.50;99.90
57833;DHT22;43667;53.036;6.740;2023-02-12T17:46:19;8.40;99.90
57833;DHT22;43667;53.036;6.740;2023-02-12T17:48:45;8.40;99.90
57833;DHT22;43667;53.036;6.740;2023-02-12T17:51:10;8.40;99.90
57833;DHT22;43667;53.036;6.740;2023-02-12T17:53:38;8.30;99.90
57833;DHT22;43667;53.036;6.740;2023-02-12T17:56:04;8.30;99.90
57833;DHT22;43667;53.036;6.740;2023-02-12T17:58:30;8.30;99.90
57833;DHT22;43667;53.036;6.740;2023-02-12T18:00:55;8.30;99.90
57833;DHT22;43667;53.036;6.740;2023-02-12T18:03:21;8.30;99.90